Time;durP1;ratioP1;P1;durP2;ratioP2;P2;SDS_P1;SDS_P2;PMS_P1;PMS_P2;Temp;Humidity;BMP_temperature;BMP_pressure;BME280_temperature;BME280_humidity;BME280_pressure;Samples;Min_cycle;Max_cycle;Signal;HPM_P1;HPM_P2
2023/12/21 00:00:52;;;;;;;63.40;52.37;;;21.60;74.90;;;;;;5037764;28;20468;-57
2023/12/21 00:03:20;;;;;;;73.60;53.83;;;21.60;75.00;;;;;;5033924;28;20479;-57
2023/12/21 00:05:46;;;;;;;75.27;57.63;;;21.60;75.10;;;;;;5035633;28;20481;-56
2023/12/21 00:08:13;;;;;;;73.07;59.27;;;21.60;75.10;;;;;;5038160;28;20771;-54
2023/12/21 00:10:40;;;;;;;78.27;60.37;;;21.60;75.00;;;;;;5035277;28;20984;-56
2023/12/21 00:13:07;;;;;;;75.40;63.63;;;21.70;75.50;;;;;;5036101;28;20456;-55
2023/12/21 00:15:33;;;;;;;72.97;59.80;;;21.60;74.80;;;;;;5035144;28;20477;-55
2023/12/21 00:18:00;;;;;;;82.17;63.40;;;21.60;74.80;;;;;;5035758;28;21418;-57
2023/12/21 00:20:28;;;;;;;83.27;66.77;;;21.50;74.90;;;;;;5035615;28;20468;-57
2023/12/21 00:22:55;;;;;;;84.70;65.90;;;21.80;75.60;;;;;;5033193;28;20477;-56
2023/12/21 00:25:21;;;;;;;83.63;68.37;;;21.60;75.40;;;;;;5039654;28;20690;-55
2023/12/21 00:27:48;;;;;;;82.73;70.97;;;21.50;75.30;;;;;;5039470;28;20466;-57
2023/12/21 00:30:15;;;;;;;82.90;69.07;;;21.50;75.50;;;;;;5036624;28;21593;-55
2023/12/21 00:32:42;;;;;;;88.20;72.55;;;21.50;75.50;;;;;;5038565;28;20457;-57
2023/12/21 00:35:09;;;;;;;94.90;77.10;;;21.50;75.70;;;;;;5037342;28;20264;-56
2023/12/21 00:37:37;;;;;;;89.40;75.77;;;21.80;76.10;;;;;;5041125;28;21485;-54
2023/12/21 00:40:05;;;;;;;100.27;79.67;;;21.50;76.00;;;;;;5040432;28;20464;-57
2023/12/21 00:42:32;;;;;;;98.73;83.73;;;21.50;75.80;;;;;;5043115;28;22668;-56
2023/12/21 00:44:59;;;;;;;105.10;86.10;;;21.50;76.20;;;;;;5034545;28;21138;-54
2023/12/21 00:47:26;;;;;;;119.50;97.20;;;21.50;76.20;;;;;;5040906;28;20814;-56
2023/12/21 00:49:53;;;;;;;125.03;108.50;;;21.50;76.20;;;;;;5040294;28;20619;-58
2023/12/21 00:52:19;;;;;;;151.07;125.27;;;21.50;76.40;;;;;;5036150;28;20457;-57
2023/12/21 00:54:47;;;;;;;159.50;135.50;;;21.50;77.10;;;;;;5037073;28;20460;-54
2023/12/21 00:57:14;;;;;;;165.07;145.67;;;21.50;77.30;;;;;;5037820;28;20957;-56
2023/12/21 00:59:41;;;;;;;182.23;149.48;;;21.60;78.70;;;;;;5037019;28;20674;-54
2023/12/21 01:02:07;;;;;;;183.17;156.57;;;21.50;77.60;;;;;;5035325;28;20190;-55
2023/12/21 01:04:34;;;;;;;152.27;129.13;;;21.50;77.70;;;;;;5037633;28;20483;-53
2023/12/21 01:07:01;;;;;;;176.95;150.77;;;21.40;77.50;;;;;;5038651;28;20205;-55
2023/12/21 01:09:28;;;;;;;173.57;147.03;;;21.50;77.70;;;;;;5035832;28;20303;-54
2023/12/21 01:11:57;;;;;;;174.30;148.00;;;21.40;78.20;;;;;;5036329;28;20973;-57
2023/12/21 01:14:24;;;;;;;177.17;146.70;;;21.40;78.40;;;;;;5035885;28;20959;-55
2023/12/21 01:16:51;;;;;;;168.10;141.80;;;21.40;78.60;;;;;;5035301;28;20550;-56
2023/12/21 01:19:17;;;;;;;180.82;152.52;;;21.40;78.40;;;;;;5036272;28;20992;-56
2023/12/21 01:21:44;;;;;;;178.23;148.57;;;21.30;78.50;;;;;;5035575;28;20281;-55
2023/12/21 01:24:11;;;;;;;175.13;148.90;;;21.40;79.30;;;;;;5027599;28;20456;-53
2023/12/21 01:26:38;;;;;;;176.30;151.23;;;21.50;78.80;;;;;;5033820;28;20225;-56
2023/12/21 01:29:06;;;;;;;175.83;144.27;;;21.40;79.00;;;;;;5032701;28;20979;-57
2023/12/21 01:31:32;;;;;;;173.18;152.00;;;21.40;79.70;;;;;;5034345;28;20458;-55
2023/12/21 01:34:01;;;;;;;180.82;153.95;;;21.40;79.50;;;;;;5035722;28;20706;-56
2023/12/21 01:36:28;;;;;;;175.17;151.77;;;21.40;79.50;;;;;;5037174;28;20297;-57
2023/12/21 01:38:56;;;;;;;169.57;150.47;;;21.40;79.60;;;;;;5035308;28;20469;-55
2023/12/21 01:41:23;;;;;;;181.37;155.30;;;21.40;81.00;;;;;;5033464;28;20453;-57
2023/12/21 01:43:50;;;;;;;177.93;152.07;;;21.30;80.70;;;;;;5031858;28;20472;-56
2023/12/21 01:46:18;;;;;;;174.57;147.20;;;21.40;80.20;;;;;;5035076;28;21211;-56
2023/12/21 01:48:47;;;;;;;171.65;148.43;;;21.30;80.70;;;;;;5036199;28;20444;-56
2023/12/21 01:51:14;;;;;;;176.60;143.53;;;21.40;81.30;;;;;;5036503;28;20194;-56
2023/12/21 01:53:41;;;;;;;169.03;146.00;;;21.30;74.10;;;;;;5030460;28;20461;-57
2023/12/21 01:56:08;;;;;;;166.73;141.17;;;21.30;74.60;;;;;;5034379;28;21383;-57
2023/12/21 01:58:35;;;;;;;173.77;144.93;;;21.30;74.80;;;;;;5034593;28;20582;-56
2023/12/21 02:01:04;;;;;;;167.27;138.43;;;21.30;74.60;;;;;;5035319;28;20205;-55
2023/12/21 02:03:32;;;;;;;173.13;142.90;;;21.30;74.70;;;;;;5035053;28;20559;-55
2023/12/21 02:05:59;;;;;;;167.32;136.73;;;21.30;74.80;;;;;;5032259;28;20230;-55
2023/12/21 02:08:26;;;;;;;166.20;138.50;;;21.30;75.70;;;;;;5034848;28;20197;-58
2023/12/21 02:10:57;;;;;;;157.82;136.68;;;21.30;74.80;;;;;;5028788;28;20461;-57
2023/12/21 02:13:24;;;;;;;163.43;136.55;;;21.30;75.10;;;;;;5034691;28;20567;-56
2023/12/21 02:15:52;;;;;;;153.73;133.87;;;21.30;74.80;;;;;;5035069;28;20202;-54
2023/12/21 02:18:19;;;;;;;154.43;131.30;;;21.30;74.80;;;;;;5033310;28;20480;-55
2023/12/21 02:20:47;;;;;;;147.55;127.95;;;21.20;75.00;;;;;;5035561;28;20460;-55
2023/12/21 02:23:17;;;;;;;151.47;129.33;;;21.20;75.00;;;;;;5033342;28;20207;-56
2023/12/21 02:25:45;;;;;;;148.33;127.33;;;21.20;74.80;;;;;;5036969;28;20473;-55
2023/12/21 02:28:11;;;;;;;154.55;127.30;;;21.20;75.00;;;;;;5036553;28;20455;-55
2023/12/21 02:30:38;;;;;;;143.80;123.78;;;21.20;75.00;;;;;;5036179;28;20199;-54
2023/12/21 02:33:06;;;;;;;142.00;120.90;;;21.20;75.20;;;;;;5038347;28;20834;-54
2023/12/21 02:35:32;;;;;;;140.10;119.15;;;21.20;75.00;;;;;;5035533;28;20205;-57
2023/12/21 02:37:59;;;;;;;144.55;119.35;;;21.20;75.30;;;;;;5033974;28;20412;-57
2023/12/21 02:40:26;;;;;;;136.63;115.22;;;21.20;75.00;;;;;;5032585;28;20757;-58
2023/12/21 02:42:54;;;;;;;130.03;112.33;;;21.20;75.00;;;;;;5034479;28;20199;-57
2023/12/21 02:45:20;;;;;;;133.52;113.10;;;21.20;74.90;;;;;;5030520;28;20455;-57
2023/12/21 02:47:47;;;;;;;134.95;114.20;;;21.10;74.90;;;;;;5038426;28;20199;-54
2023/12/21 02:50:14;;;;;;;136.33;113.13;;;21.10;75.20;;;;;;5034047;28;20675;-56
2023/12/21 02:52:40;;;;;;;130.13;109.82;;;21.10;75.00;;;;;;5033405;28;20472;-56
2023/12/21 02:55:08;;;;;;;129.90;106.50;;;21.10;75.00;;;;;;5033473;28;20576;-55
2023/12/21 02:57:34;;;;;;;121.85;101.97;;;21.10;75.20;;;;;;5040493;28;20195;-57
2023/12/21 03:00:03;;;;;;;128.17;110.43;;;21.10;75.50;;;;;;5040434;28;20311;-55
2023/12/21 03:02:29;;;;;;;123.93;104.75;;;21.10;75.50;;;;;;5041696;28;20539;-56
2023/12/21 03:04:56;;;;;;;126.93;102.47;;;21.10;75.30;;;;;;5033608;28;21195;-57
2023/12/21 03:07:22;;;;;;;119.80;98.22;;;21.10;75.50;;;;;;5033779;28;20224;-55
2023/12/21 03:09:49;;;;;;;118.18;101.80;;;21.10;75.30;;;;;;5034343;28;20202;-56
2023/12/21 03:12:16;;;;;;;113.55;97.13;;;21.10;75.20;;;;;;5035446;28;20208;-56
2023/12/21 03:14:43;;;;;;;116.17;99.07;;;21.10;75.10;;;;;;5037617;28;20200;-57
2023/12/21 03:17:11;;;;;;;121.32;97.65;;;21.00;75.30;;;;;;5041142;28;20484;-56
2023/12/21 03:19:38;;;;;;;108.50;91.50;;;21.00;75.00;;;;;;5040524;28;20275;-55
2023/12/21 03:22:05;;;;;;;106.07;94.40;;;21.00;75.40;;;;;;5039859;28;20448;-56
2023/12/21 03:24:32;;;;;;;110.97;88.85;;;21.00;75.30;;;;;;5042690;28;20440;-54
2023/12/21 03:26:58;;;;;;;105.97;88.40;;;21.00;75.50;;;;;;5042866;28;20296;-56
2023/12/21 03:29:25;;;;;;;102.72;91.38;;;21.00;75.60;;;;;;5038255;28;20198;-56
2023/12/21 03:31:54;;;;;;;99.57;86.40;;;21.00;75.30;;;;;;5040606;28;20567;-56
2023/12/21 03:34:22;;;;;;;104.30;87.43;;;21.00;75.30;;;;;;5039835;28;20668;-56
2023/12/21 03:36:48;;;;;;;108.70;88.43;;;21.00;75.60;;;;;;5039244;28;20473;-54
2023/12/21 03:39:15;;;;;;;100.28;86.95;;;21.00;75.10;;;;;;5038304;28;20191;-55
2023/12/21 03:41:42;;;;;;;103.43;83.65;;;20.90;75.10;;;;;;5041964;28;20198;-55
2023/12/21 03:44:09;;;;;;;102.50;84.00;;;21.00;75.50;;;;;;5034118;28;20651;-57
2023/12/21 03:46:35;;;;;;;99.00;82.50;;;21.00;75.60;;;;;;5034006;28;20202;-56
2023/12/21 03:49:02;;;;;;;97.65;80.45;;;21.00;75.60;;;;;;5036741;28;20279;-56
2023/12/21 03:51:30;;;;;;;90.20;75.90;;;20.90;75.40;;;;;;5037679;28;20195;-53
2023/12/21 03:53:57;;;;;;;89.85;78.80;;;20.90;75.10;;;;;;5036676;28;20201;-56
2023/12/21 03:56:23;;;;;;;91.80;79.40;;;20.90;75.40;;;;;;5036819;28;20204;-58
2023/12/21 03:58:50;;;;;;;96.38;83.30;;;20.90;75.40;;;;;;5037938;28;20464;-55
2023/12/21 04:01:24;;;;;;;91.68;73.63;;;20.90;75.30;;;;;;5040164;28;22674;-55
2023/12/21 04:03:51;;;;;;;86.45;69.90;;;20.90;75.70;;;;;;5037796;28;20218;-56
2023/12/21 04:06:17;;;;;;;91.50;72.63;;;20.90;76.00;;;;;;5038486;28;20234;-56
2023/12/21 04:08:45;;;;;;;87.43;72.15;;;20.90;75.40;;;;;;5041093;28;20933;-55
2023/12/21 04:11:12;;;;;;;87.57;71.73;;;20.90;75.50;;;;;;5039849;28;20201;-56
2023/12/21 04:13:39;;;;;;;79.22;67.18;;;20.90;75.50;;;;;;5039608;28;20464;-56
2023/12/21 04:16:07;;;;;;;78.17;66.50;;;20.90;75.40;;;;;;5033811;28;20633;-58
2023/12/21 04:18:34;;;;;;;78.75;69.05;;;20.90;75.70;;;;;;5039044;28;20794;-55
2023/12/21 04:21:00;;;;;;;79.20;65.68;;;20.90;75.50;;;;;;5038906;28;20207;-55
2023/12/21 04:23:27;;;;;;;72.00;61.45;;;20.90;75.70;;;;;;5035738;28;20245;-56
2023/12/21 04:25:55;;;;;;;76.22;62.25;;;20.90;75.50;;;;;;5039060;28;20205;-54
2023/12/21 04:28:22;;;;;;;73.13;64.30;;;20.90;75.50;;;;;;5036247;28;20195;-56
2023/12/21 04:30:48;;;;;;;76.05;62.20;;;20.90;75.10;;;;;;5038340;28;20383;-57
2023/12/21 04:33:15;;;;;;;77.20;62.22;;;20.90;75.30;;;;;;5037735;28;20195;-56
2023/12/21 04:35:44;;;;;;;72.38;61.40;;;20.80;75.20;;;;;;5037848;28;20202;-54
2023/12/21 04:38:11;;;;;;;66.85;55.67;;;20.80;75.30;;;;;;5034375;28;20201;-57
2023/12/21 04:40:37;;;;;;;69.47;58.10;;;20.80;75.40;;;;;;5035054;28;20207;-55
2023/12/21 04:43:07;;;;;;;68.40;55.50;;;20.80;75.40;;;;;;5038105;28;20203;-57
2023/12/21 04:45:34;;;;;;;67.85;57.15;;;20.80;75.40;;;;;;5036611;28;20187;-55
2023/12/21 04:48:00;;;;;;;61.47;54.70;;;20.90;75.60;;;;;;5038360;28;20226;-57
2023/12/21 04:50:28;;;;;;;69.55;58.53;;;20.80;76.00;;;;;;5037882;28;20466;-57
2023/12/21 04:52:55;;;;;;;65.38;54.97;;;20.80;75.40;;;;;;5037911;28;20206;-57
2023/12/21 04:55:22;;;;;;;65.50;56.53;;;20.80;75.40;;;;;;5033988;28;20195;-54
2023/12/21 04:57:49;;;;;;;65.72;52.40;;;20.80;75.10;;;;;;5038512;28;20672;-57
2023/12/21 05:00:17;;;;;;;62.95;49.50;;;20.80;75.30;;;;;;5035004;28;20275;-56
2023/12/21 05:02:44;;;;;;;66.63;52.57;;;20.80;75.20;;;;;;5039014;28;20193;-55
2023/12/21 05:05:11;;;;;;;60.15;51.25;;;20.80;75.30;;;;;;5036217;28;20463;-54
2023/12/21 05:07:38;;;;;;;58.20;49.38;;;20.80;75.10;;;;;;5036950;28;20211;-56
2023/12/21 05:10:05;;;;;;;62.87;46.77;;;20.80;75.30;;;;;;5025697;28;20202;-61
2023/12/21 05:12:32;;;;;;;56.50;46.33;;;20.80;75.40;;;;;;5035841;28;20451;-60
2023/12/21 05:14:58;;;;;;;57.97;49.40;;;20.80;75.50;;;;;;5034005;28;20476;-60
2023/12/21 05:17:26;;;;;;;52.55;45.78;;;20.80;76.10;;;;;;5037337;28;21020;-60
2023/12/21 05:19:53;;;;;;;57.83;44.28;;;20.80;76.40;;;;;;5035223;28;20193;-58
2023/12/21 05:22:20;;;;;;;52.95;42.95;;;20.80;76.30;;;;;;5037195;28;20205;-57
2023/12/21 05:24:46;;;;;;;48.65;41.67;;;20.80;76.10;;;;;;5038569;28;20210;-56
2023/12/21 05:27:13;;;;;;;46.97;39.53;;;20.80;76.40;;;;;;5039615;28;20232;-56
2023/12/21 05:29:41;;;;;;;49.63;42.03;;;20.80;76.40;;;;;;5035104;28;23843;-57
2023/12/21 05:32:08;;;;;;;50.33;39.50;;;20.80;76.50;;;;;;5037971;28;20225;-56
2023/12/21 05:34:36;;;;;;;50.95;39.50;;;20.80;76.30;;;;;;5038676;28;20202;-56
2023/12/21 05:37:03;;;;;;;46.88;37.65;;;20.80;76.60;;;;;;5039184;28;21087;-57
2023/12/21 05:39:30;;;;;;;43.10;36.30;;;20.80;76.50;;;;;;5032657;28;20193;-57
2023/12/21 05:41:57;;;;;;;44.78;36.35;;;20.80;76.40;;;;;;5033649;28;20203;-54
2023/12/21 05:44:24;;;;;;;46.83;35.25;;;20.70;76.10;;;;;;5033055;28;20285;-55
2023/12/21 05:46:50;;;;;;;40.73;33.20;;;20.70;77.00;;;;;;5034099;28;20218;-53
2023/12/21 05:49:17;;;;;;;43.53;33.30;;;20.70;76.00;;;;;;5035599;28;20484;-54
2023/12/21 05:51:48;;;;;;;40.25;30.15;;;20.80;76.00;;;;;;5034386;28;20584;-57
2023/12/21 05:54:14;;;;;;;28.42;23.40;;;20.70;75.50;;;;;;5034538;28;20598;-55
2023/12/21 05:56:42;;;;;;;39.88;30.85;;;20.70;75.10;;;;;;5035594;28;20199;-59
2023/12/21 05:59:11;;;;;;;37.20;29.98;;;20.60;75.30;;;;;;5033501;28;20839;-59
2023/12/21 06:01:38;;;;;;;31.23;26.25;;;20.70;76.10;;;;;;5031112;28;20210;-60
2023/12/21 06:04:05;;;;;;;30.90;25.70;;;20.70;75.50;;;;;;5033236;28;20237;-61
2023/12/21 06:06:31;;;;;;;30.25;24.30;;;20.70;75.50;;;;;;5037280;28;20218;-60
2023/12/21 06:09:00;;;;;;;26.00;22.90;;;20.70;75.50;;;;;;5037163;28;20890;-62
2023/12/21 06:11:28;;;;;;;28.67;25.55;;;20.60;75.40;;;;;;5033965;28;20204;-61
2023/12/21 06:13:55;;;;;;;30.00;25.17;;;20.70;75.50;;;;;;5034875;28;20199;-61
2023/12/21 06:16:21;;;;;;;28.20;23.45;;;20.60;75.40;;;;;;5033783;28;20202;-60
2023/12/21 06:18:50;;;;;;;29.27;22.60;;;20.60;75.40;;;;;;5034912;28;20789;-62
2023/12/21 06:21:17;;;;;;;31.70;24.20;;;20.60;75.50;;;;;;5032295;28;20207;-61
2023/12/21 06:23:43;;;;;;;26.80;21.83;;;20.60;75.40;;;;;;5036096;28;20194;-60
2023/12/21 06:26:12;;;;;;;25.85;21.25;;;20.60;75.30;;;;;;5037539;28;20477;-61
2023/12/21 06:28:39;;;;;;;26.17;21.05;;;20.60;75.40;;;;;;5034615;28;20234;-61
2023/12/21 06:31:06;;;;;;;26.17;20.27;;;20.70;75.90;;;;;;5037557;28;20206;-61
2023/12/21 06:33:32;;;;;;;34.08;22.23;;;20.70;75.50;;;;;;5037690;28;20199;-59
2023/12/21 06:35:59;;;;;;;24.25;19.75;;;20.60;75.40;;;;;;5035539;28;20543;-60
2023/12/21 06:38:26;;;;;;;22.88;19.80;;;20.70;75.60;;;;;;5033953;28;20486;-58
2023/12/21 06:40:52;;;;;;;25.73;20.60;;;20.60;75.30;;;;;;5040475;28;20194;-60
2023/12/21 06:43:22;;;;;;;22.20;17.30;;;20.60;75.30;;;;;;5039572;28;20195;-62
2023/12/21 06:45:49;;;;;;;22.40;17.63;;;20.60;75.40;;;;;;5040548;28;20214;-61
2023/12/21 06:48:15;;;;;;;21.10;18.70;;;20.60;75.40;;;;;;5039853;28;20211;-60
2023/12/21 06:50:42;;;;;;;22.20;18.05;;;20.60;75.20;;;;;;5041703;28;20670;-61
2023/12/21 06:53:15;;;;;;;21.60;16.38;;;20.60;75.20;;;;;;5040956;28;20199;-59
2023/12/21 06:55:41;;;;;;;20.77;17.38;;;20.60;75.30;;;;;;5039752;28;20191;-60
2023/12/21 06:58:08;;;;;;;21.40;18.17;;;20.60;75.20;;;;;;5039798;28;20210;-60
2023/12/21 07:00:36;;;;;;;20.73;16.55;;;20.60;75.30;;;;;;5037009;28;20191;-61
2023/12/21 07:03:03;;;;;;;19.77;17.02;;;20.60;75.20;;;;;;5039924;28;20207;-61
2023/12/21 07:05:30;;;;;;;20.85;17.52;;;20.60;75.10;;;;;;5039644;28;20195;-60
2023/12/21 07:07:57;;;;;;;22.45;16.25;;;20.60;75.20;;;;;;5040594;28;20548;-61
2023/12/21 07:10:24;;;;;;;27.60;16.08;;;20.50;75.20;;;;;;5036281;28;20729;-62
2023/12/21 07:12:50;;;;;;;19.97;15.00;;;20.60;75.20;;;;;;5037611;28;20210;-60
2023/12/21 07:15:17;;;;;;;19.55;15.27;;;20.60;75.10;;;;;;5040479;28;20473;-62
2023/12/21 07:17:45;;;;;;;18.70;15.23;;;20.50;75.20;;;;;;5041855;28;20206;-60
2023/12/21 07:20:12;;;;;;;18.50;14.77;;;20.50;75.20;;;;;;5040774;28;20568;-60
2023/12/21 07:22:39;;;;;;;18.02;16.02;;;20.50;75.10;;;;;;5038729;28;20230;-61
2023/12/21 07:25:06;;;;;;;17.67;14.18;;;20.40;75.20;;;;;;5041876;28;20198;-60
2023/12/21 07:27:33;;;;;;;18.67;15.43;;;20.50;75.30;;;;;;5042576;28;20219;-60
2023/12/21 07:30:00;;;;;;;16.23;14.20;;;20.40;75.20;;;;;;5040317;28;20206;-60
2023/12/21 07:32:27;;;;;;;17.38;14.25;;;20.50;75.50;;;;;;5039890;28;20202;-61
2023/12/21 07:34:55;;;;;;;14.45;12.90;;;20.40;75.50;;;;;;5042288;28;20206;-61
2023/12/21 07:37:22;;;;;;;18.23;15.35;;;20.50;75.60;;;;;;5041869;28;20216;-61
2023/12/21 07:39:49;;;;;;;16.65;13.45;;;20.50;75.60;;;;;;5040573;28;20221;-60
2023/12/21 07:42:17;;;;;;;16.92;13.07;;;20.40;75.60;;;;;;5037845;28;20194;-60
2023/12/21 07:44:44;;;;;;;17.88;12.85;;;20.50;75.70;;;;;;5038410;28;20206;-61
2023/12/21 07:47:11;;;;;;;14.77;12.52;;;20.50;75.80;;;;;;5038630;28;20246;-59
2023/12/21 07:49:38;;;;;;;14.70;12.02;;;20.50;75.60;;;;;;5037935;28;20207;-62
2023/12/21 07:52:06;;;;;;;14.88;12.90;;;20.50;75.80;;;;;;5038068;28;20199;-60
2023/12/21 07:54:33;;;;;;;12.38;10.27;;;20.50;75.70;;;;;;5035743;28;20559;-61
2023/12/21 07:57:00;;;;;;;13.88;11.82;;;20.60;75.80;;;;;;5039637;28;20449;-62
2023/12/21 07:59:26;;;;;;;13.82;11.80;;;20.60;75.70;;;;;;5035847;28;20206;-61
2023/12/21 08:01:53;;;;;;;12.07;10.35;;;20.60;75.60;;;;;;5036128;28;20199;-61
2023/12/21 08:04:20;;;;;;;14.52;11.45;;;20.70;75.90;;;;;;5039999;28;21686;-61
2023/12/21 08:06:47;;;;;;;13.07;10.70;;;20.60;75.90;;;;;;5040023;28;20349;-61
2023/12/21 08:09:15;;;;;;;12.20;10.50;;;20.60;75.80;;;;;;5038856;28;20215;-61
2023/12/21 08:11:42;;;;;;;11.38;9.50;;;20.60;75.60;;;;;;5039947;28;20218;-61
2023/12/21 08:14:09;;;;;;;14.57;10.85;;;20.60;75.80;;;;;;5039327;28;20647;-61
2023/12/21 08:16:35;;;;;;;13.10;10.07;;;20.60;75.60;;;;;;5041010;28;20206;-61
2023/12/21 08:19:02;;;;;;;14.75;9.48;;;20.70;75.90;;;;;;5041571;28;20461;-61
2023/12/21 08:21:29;;;;;;;11.15;9.45;;;20.70;75.80;;;;;;5038288;28;20206;-60
2023/12/21 08:23:55;;;;;;;10.65;9.20;;;20.70;75.70;;;;;;5038482;28;20781;-62
2023/12/21 08:26:23;;;;;;;12.70;9.57;;;20.70;75.90;;;;;;5037878;28;20195;-62
2023/12/21 08:28:50;;;;;;;13.80;10.18;;;20.70;75.70;;;;;;5035189;28;20222;-60
2023/12/21 08:31:24;;;;;;;10.60;8.95;;;20.80;75.80;;;;;;5038667;28;20500;-61
2023/12/21 08:33:51;;;;;;;11.15;8.45;;;20.80;75.80;;;;;;5035083;28;20281;-59
2023/12/21 08:36:18;;;;;;;9.18;7.90;;;20.80;75.60;;;;;;5034549;28;20610;-62
2023/12/21 08:38:44;;;;;;;8.32;6.55;;;20.80;75.90;;;;;;5037460;28;20659;-59
2023/12/21 08:41:11;;;;;;;12.23;6.70;;;20.80;76.00;;;;;;5032776;28;20206;-62
2023/12/21 08:43:39;;;;;;;12.77;8.52;;;20.80;76.10;;;;;;5034182;28;20463;-61
2023/12/21 08:46:06;;;;;;;17.17;7.25;;;20.80;76.20;;;;;;5032983;28;20192;-61
2023/12/21 08:48:33;;;;;;;9.40;5.90;;;20.80;76.20;;;;;;5029686;28;20230;-60
2023/12/21 08:50:59;;;;;;;7.47;6.53;;;20.90;76.40;;;;;;5032287;28;20589;-61
2023/12/21 08:53:26;;;;;;;7.30;5.77;;;20.90;76.70;;;;;;5036012;28;20206;-63
2023/12/21 08:55:53;;;;;;;7.40;6.38;;;20.90;76.90;;;;;;5035421;28;20468;-64
2023/12/21 08:58:20;;;;;;;9.25;5.88;;;21.00;77.00;;;;;;5033727;28;20289;-66
2023/12/21 09:00:48;;;;;;;6.00;4.83;;;21.00;77.30;;;;;;5037057;28;20289;-64
2023/12/21 09:03:15;;;;;;;6.60;5.40;;;21.00;77.40;;;;;;5029409;28;20468;-62
2023/12/21 09:05:41;;;;;;;5.70;5.13;;;21.00;76.10;;;;;;5036921;28;20207;-60
2023/12/21 09:08:08;;;;;;;5.67;4.40;;;21.00;75.30;;;;;;5035493;28;20992;-61
2023/12/21 09:10:35;;;;;;;5.70;5.20;;;21.00;75.20;;;;;;5035690;28;20466;-62
2023/12/21 09:13:02;;;;;;;6.50;4.80;;;21.10;75.20;;;;;;5034419;28;20458;-57
2023/12/21 09:15:29;;;;;;;5.97;5.10;;;21.10;75.20;;;;;;5033621;28;20499;-56
2023/12/21 09:17:57;;;;;;;7.07;5.27;;;21.10;75.20;;;;;;5038814;28;20464;-58
2023/12/21 09:20:24;;;;;;;5.75;4.55;;;21.10;75.10;;;;;;5031073;28;20456;-56
2023/12/21 09:22:50;;;;;;;4.83;4.03;;;21.20;75.20;;;;;;5037620;28;20575;-58
2023/12/21 09:25:18;;;;;;;7.10;4.90;;;21.20;74.70;;;;;;5034072;28;20462;-58
2023/12/21 09:27:45;;;;;;;4.70;4.20;;;21.20;74.60;;;;;;5036713;28;21695;-60
2023/12/21 09:30:12;;;;;;;5.77;4.57;;;21.20;74.30;;;;;;5031658;28;20473;-58
2023/12/21 09:32:40;;;;;;;4.90;4.07;;;21.20;74.40;;;;;;5032189;28;21334;-61
2023/12/21 09:35:09;;;;;;;5.93;4.40;;;21.30;74.20;;;;;;5035510;28;20545;-64
2023/12/21 09:37:36;;;;;;;4.60;4.13;;;21.30;74.10;;;;;;5033606;28;20484;-63
2023/12/21 09:40:03;;;;;;;9.50;4.17;;;21.40;75.10;;;;;;5033548;28;20606;-64
2023/12/21 09:42:32;;;;;;;4.10;3.70;;;21.40;75.30;;;;;;5035108;28;20973;-65
2023/12/21 09:45:01;;;;;;;3.60;3.30;;;21.40;75.30;;;;;;5033693;28;20571;-66
2023/12/21 09:47:31;;;;;;;4.20;3.30;;;21.40;75.30;;;;;;5032072;28;20600;-66
2023/12/21 09:49:58;;;;;;;3.27;2.97;;;21.50;75.40;;;;;;5035544;28;20453;-65
2023/12/21 09:52:27;;;;;;;3.13;2.80;;;21.50;75.30;;;;;;5035268;28;20460;-67
2023/12/21 09:54:54;;;;;;;4.43;4.00;;;21.50;75.30;;;;;;5034807;28;20894;-66
2023/12/21 09:57:24;;;;;;;4.80;3.10;;;21.50;75.30;;;;;;5034842;28;20995;-66
2023/12/21 09:59:52;;;;;;;4.03;3.17;;;21.60;75.30;;;;;;5033953;28;20465;-64
2023/12/21 10:02:19;;;;;;;2.93;2.33;;;21.60;75.30;;;;;;5032511;28;20454;-63
2023/12/21 10:04:46;;;;;;;4.23;2.80;;;21.60;75.10;;;;;;5034236;28;20465;-61
2023/12/21 10:07:13;;;;;;;2.77;2.53;;;21.60;75.20;;;;;;5036565;28;20500;-64
2023/12/21 10:09:41;;;;;;;2.80;2.20;;;21.60;75.10;;;;;;5031123;28;20566;-62
2023/12/21 10:12:08;;;;;;;2.90;2.30;;;21.70;75.10;;;;;;5035143;28;20468;-60
2023/12/21 10:14:35;;;;;;;3.33;2.37;;;21.70;75.30;;;;;;5034942;28;20472;-59
2023/12/21 10:17:01;;;;;;;3.30;3.00;;;21.70;75.10;;;;;;5037723;28;20460;-60
2023/12/21 10:19:28;;;;;;;2.20;1.87;;;21.80;75.30;;;;;;5040490;28;20457;-64
2023/12/21 10:21:56;;;;;;;3.17;2.70;;;21.80;75.30;;;;;;5036236;28;20457;-65
2023/12/21 10:24:23;;;;;;;2.77;2.43;;;21.80;75.40;;;;;;5039132;28;20899;-64
2023/12/21 10:26:52;;;;;;;2.60;2.40;;;21.90;75.50;;;;;;5037468;28;20464;-66
2023/12/21 10:29:20;;;;;;;2.70;2.30;;;21.90;75.50;;;;;;5040200;28;20480;-66
2023/12/21 10:31:47;;;;;;;2.00;1.53;;;21.90;76.40;;;;;;5039551;28;20834;-60
2023/12/21 10:34:15;;;;;;;3.33;2.73;;;21.90;75.50;;;;;;5039863;28;20464;-60
2023/12/21 10:36:43;;;;;;;2.20;2.00;;;22.00;75.70;;;;;;5036485;28;20551;-62
2023/12/21 10:39:11;;;;;;;2.87;1.93;;;22.00;75.70;;;;;;5040770;28;20829;-63
2023/12/21 10:41:40;;;;;;;2.87;1.90;;;22.00;75.70;;;;;;5036297;28;20464;-59
2023/12/21 10:44:09;;;;;;;2.13;1.87;;;22.00;75.80;;;;;;5037829;28;20553;-60
2023/12/21 10:46:38;;;;;;;1.70;1.57;;;22.00;75.70;;;;;;5039835;28;20931;-62
2023/12/21 10:49:06;;;;;;;1.70;1.60;;;22.00;75.70;;;;;;5034757;28;20484;-62
2023/12/21 10:51:35;;;;;;;2.33;1.93;;;22.00;75.80;;;;;;5036874;28;20487;-62
2023/12/21 10:54:03;;;;;;;2.13;1.80;;;22.10;75.80;;;;;;5039092;28;20511;-64
2023/12/21 10:56:30;;;;;;;2.23;1.60;;;22.10;75.80;;;;;;5036062;28;20452;-64
2023/12/21 10:58:57;;;;;;;2.33;2.10;;;22.20;75.90;;;;;;5034361;28;20472;-62
2023/12/21 11:01:28;;;;;;;1.83;1.23;;;22.10;75.80;;;;;;5039552;28;29093;-65
2023/12/21 11:03:57;;;;;;;2.20;1.83;;;22.20;76.00;;;;;;5033415;28;20536;-65
2023/12/21 11:06:24;;;;;;;1.60;1.50;;;22.20;76.00;;;;;;5036521;28;20464;-62
2023/12/21 11:08:52;;;;;;;2.43;1.77;;;22.20;76.00;;;;;;5035172;28;21602;-62
2023/12/21 11:11:22;;;;;;;1.53;1.30;;;22.20;76.40;;;;;;5038950;28;20452;-63
2023/12/21 11:13:52;;;;;;;2.23;1.90;;;22.20;76.00;;;;;;5036813;28;20948;-62
2023/12/21 11:16:23;;;;;;;1.63;1.23;;;22.30;76.00;;;;;;5042738;28;20453;-63
2023/12/21 11:18:54;;;;;;;2.50;1.43;;;22.20;76.00;;;;;;5037989;28;20536;-62
2023/12/21 11:21:22;;;;;;;1.57;1.47;;;22.20;75.90;;;;;;5039434;28;20448;-59
2023/12/21 11:23:49;;;;;;;1.30;1.13;;;22.30;76.10;;;;;;5036019;28;20450;-61
2023/12/21 11:26:21;;;;;;;1.70;1.47;;;22.30;76.00;;;;;;5036444;28;20472;-62
2023/12/21 11:28:49;;;;;;;2.10;1.60;;;22.30;76.00;;;;;;5039100;28;20492;-60
2023/12/21 11:31:18;;;;;;;1.30;1.20;;;22.30;75.80;;;;;;5035673;28;21427;-56
2023/12/21 11:33:45;;;;;;;1.80;1.43;;;22.30;75.80;;;;;;5037180;28;20454;-61
2023/12/21 11:36:25;;;;;;;1.47;1.37;;;22.30;75.80;;;;;;5036176;28;20456;-61
2023/12/21 11:38:52;;;;;;;1.67;1.20;;;22.40;75.80;;;;;;5032924;28;20675;-61
2023/12/21 11:41:23;;;;;;;1.57;1.37;;;22.40;75.90;;;;;;5038233;28;20465;-63
2023/12/21 11:43:56;;;;;;;1.47;1.37;;;22.40;75.80;;;;;;5032893;28;20466;-61
2023/12/21 11:46:23;;;;;;;2.27;1.93;;;22.40;75.70;;;;;;5034735;28;20580;-58
2023/12/21 11:48:50;;;;;;;1.60;1.50;;;22.40;75.60;;;;;;5035389;28;21091;-60
2023/12/21 11:51:17;;;;;;;1.30;1.20;;;22.40;75.50;;;;;;5037451;28;20468;-59
2023/12/21 11:53:45;;;;;;;1.40;1.27;;;22.50;75.70;;;;;;5037812;28;20479;-62
2023/12/21 11:56:14;;;;;;;1.90;1.47;;;22.50;75.60;;;;;;5038872;28;20953;-63
2023/12/21 11:58:41;;;;;;;1.30;1.00;;;22.50;75.20;;;;;;5038623;28;20460;-63
2023/12/21 12:01:08;;;;;;;1.20;1.10;;;22.50;75.40;;;;;;5036543;28;20468;-62
2023/12/21 12:03:35;;;;;;;1.50;1.10;;;22.50;75.30;;;;;;5037600;28;20671;-62
2023/12/21 12:06:04;;;;;;;1.20;1.00;;;22.50;75.50;;;;;;5038118;28;20489;-64
2023/12/21 12:08:34;;;;;;;1.30;1.20;;;22.50;75.30;;;;;;5033959;28;20484;-64
2023/12/21 12:11:04;;;;;;;1.30;1.10;;;22.50;75.30;;;;;;5036111;28;20467;-63
2023/12/21 12:13:32;;;;;;;1.33;0.97;;;22.50;75.10;;;;;;5036534;28;20873;-66
2023/12/21 12:15:58;;;;;;;1.60;1.20;;;22.50;75.10;;;;;;5034492;28;20564;-60
2023/12/21 12:18:25;;;;;;;1.63;1.23;;;22.50;75.10;;;;;;5034551;28;21401;-58
2023/12/21 12:20:52;;;;;;;1.30;1.20;;;22.60;75.10;;;;;;5031906;28;20464;-64
2023/12/21 12:23:19;;;;;;;2.23;1.60;;;22.60;75.30;;;;;;5033944;28;20453;-65
2023/12/21 12:25:46;;;;;;;1.43;1.10;;;22.60;75.10;;;;;;5035717;28;20458;-65
2023/12/21 12:28:14;;;;;;;1.13;0.90;;;22.60;75.00;;;;;;5035375;28;21353;-65